Time;durP1;ratioP1;P1;durP2;ratioP2;P2;SDS_P1;SDS_P2;PMS_P1;PMS_P2;Temp;Humidity;BMP_temperature;BMP_pressure;BME280_temperature;BME280_humidity;BME280_pressure;Samples;Min_cycle;Max_cycle;Signal;HPM_P1;HPM_P2
2022/07/06 00:01:33;;;;;;;0.40;0.40;;;19.50;99.90;;;;;;5053676;28;20115;-81
2022/07/06 00:03:59;;;;;;;0.15;0.15;;;19.50;99.90;;;;;;5053646;28;20068;-81
2022/07/06 00:06:25;;;;;;;0.20;0.20;;;19.50;99.90;;;;;;5054970;28;20031;-81
2022/07/06 00:08:51;;;;;;;0.08;0.08;;;19.40;99.90;;;;;;5053670;28;20353;-81
2022/07/06 00:11:16;;;;;;;0.08;0.08;;;19.40;99.90;;;;;;5053621;28;20029;-81
2022/07/06 00:13:42;;;;;;;0.20;0.20;;;19.40;99.90;;;;;;5053444;28;20025;-81
2022/07/06 00:16:08;;;;;;;0.40;0.40;;;19.40;99.90;;;;;;5053496;28;20033;-81
2022/07/06 00:18:34;;;;;;;3.65;0.77;;;19.40;99.90;;;;;;5053202;28;20033;-81
2022/07/06 00:20:59;;;;;;;0.00;0.00;;;19.30;99.90;;;;;;5053264;28;20032;-81
2022/07/06 00:23:25;;;;;;;0.10;0.10;;;19.40;99.90;;;;;;5053437;28;20032;-81
2022/07/06 00:25:51;;;;;;;0.17;0.10;;;19.30;99.90;;;;;;5054468;28;20025;-81
2022/07/06 00:28:17;;;;;;;0.00;0.00;;;19.40;99.90;;;;;;5054189;28;20056;-81
2022/07/06 00:30:43;;;;;;;0.10;0.10;;;19.30;99.90;;;;;;5054453;28;20017;-81
2022/07/06 00:33:08;;;;;;;0.25;0.25;;;19.30;99.90;;;;;;5053165;28;20464;-81
2022/07/06 00:35:34;;;;;;;0.05;0.05;;;19.30;99.90;;;;;;5053139;28;20029;-81
2022/07/06 00:38:00;;;;;;;0.00;0.00;;;19.30;99.90;;;;;;5052404;28;20029;-81
2022/07/06 00:40:26;;;;;;;2.08;1.20;;;19.30;99.90;;;;;;5054133;28;20025;-81
2022/07/06 00:42:52;;;;;;;0.20;0.20;;;19.30;99.90;;;;;;5054387;28;20028;-81
2022/07/06 00:45:18;;;;;;;0.10;0.08;;;19.30;99.90;;;;;;5052822;28;20029;-81
2022/07/06 00:47:45;;;;;;;0.15;0.15;;;19.30;99.90;;;;;;5052798;28;20400;-81
2022/07/06 00:50:13;;;;;;;0.20;0.20;;;19.30;99.90;;;;;;5054312;28;20025;-81
2022/07/06 00:52:43;;;;;;;0.20;0.20;;;19.30;99.90;;;;;;5052675;28;20032;-81
2022/07/06 00:55:09;;;;;;;;;;;19.30;99.90;;;;;;5054439;28;20041;-81
2022/07/06 00:57:36;;;;;;;0.40;0.40;;;19.20;99.90;;;;;;5053863;28;20349;-81
2022/07/06 01:00:04;;;;;;;0.00;0.00;;;19.20;99.90;;;;;;5053920;28;20371;-81
2022/07/06 01:02:33;;;;;;;0.30;0.10;;;19.20;99.90;;;;;;5053809;28;20467;-81
2022/07/06 01:04:59;;;;;;;0.20;0.20;;;19.20;99.90;;;;;;5052644;28;20116;-81
2022/07/06 01:07:25;;;;;;;0.03;0.03;;;19.20;99.90;;;;;;5053786;28;20025;-81
2022/07/06 01:09:51;;;;;;;0.03;0.03;;;19.20;99.90;;;;;;5052428;28;20021;-81
2022/07/06 01:12:17;;;;;;;0.45;0.45;;;19.20;99.90;;;;;;5052452;28;20533;-81
2022/07/06 01:14:44;;;;;;;0.52;0.17;;;19.10;99.90;;;;;;5052473;28;20379;-81
2022/07/06 01:17:10;;;;;;;0.00;0.00;;;19.10;99.90;;;;;;5052328;28;20021;-81
2022/07/06 01:19:36;;;;;;;0.08;0.08;;;19.10;99.90;;;;;;5052300;28;20438;-81
2022/07/06 01:22:02;;;;;;;0.47;0.45;;;19.10;99.90;;;;;;5053420;28;20061;-81
2022/07/06 01:24:27;;;;;;;0.00;0.00;;;19.10;99.90;;;;;;5052253;28;20035;-81
2022/07/06 01:26:53;;;;;;;0.03;0.03;;;19.10;99.90;;;;;;5052368;28;20048;-81
2022/07/06 01:29:19;;;;;;;2.03;0.80;;;19.10;99.90;;;;;;5053167;28;20128;-81
2022/07/06 01:31:50;;;;;;;0.00;0.00;;;19.10;99.90;;;;;;5053249;28;20467;-81
2022/07/06 01:34:17;;;;;;;0.75;0.75;;;19.10;99.90;;;;;;5053415;28;20021;-81
2022/07/06 01:36:43;;;;;;;1.30;1.20;;;19.10;99.90;;;;;;5053328;28;20025;-81
2022/07/06 01:39:10;;;;;;;1.13;0.63;;;19.10;99.90;;;;;;5053417;28;20426;-81
2022/07/06 01:41:36;;;;;;;0.30;0.30;;;19.10;99.90;;;;;;5052342;28;20062;-81
2022/07/06 01:44:02;;;;;;;0.75;0.40;;;19.10;99.90;;;;;;5052036;28;20391;-81
2022/07/06 01:46:28;;;;;;;0.00;0.00;;;19.10;99.90;;;;;;5052178;28;20029;-81
2022/07/06 01:48:54;;;;;;;0.05;0.05;;;19.10;99.90;;;;;;5053116;28;20574;-81
2022/07/06 01:51:20;;;;;;;0.93;0.90;;;19.10;99.90;;;;;;5056689;28;20099;-81
2022/07/06 01:53:46;;;;;;;0.55;0.55;;;19.10;99.90;;;;;;5057386;28;20021;-81
2022/07/06 01:56:11;;;;;;;0.32;0.32;;;19.10;99.90;;;;;;5056087;28;20417;-81
2022/07/06 01:58:38;;;;;;;0.13;0.13;;;19.10;99.90;;;;;;5055917;28;20021;-81
2022/07/06 02:01:11;;;;;;;0.10;0.10;;;19.10;99.90;;;;;;5056047;28;20033;-81
2022/07/06 02:03:38;;;;;;;0.20;0.20;;;19.10;99.90;;;;;;5057300;28;20025;-81
2022/07/06 02:06:05;;;;;;;0.00;0.00;;;19.10;99.90;;;;;;5057046;28;20029;-81
2022/07/06 02:08:31;;;;;;;0.68;0.68;;;19.10;99.90;;;;;;5055795;28;20115;-81
2022/07/06 02:10:57;;;;;;;0.00;0.00;;;19.10;99.90;;;;;;5057033;28;20052;-81
2022/07/06 02:13:22;;;;;;;0.00;0.00;;;19.10;99.90;;;;;;5055648;28;20100;-81
2022/07/06 02:15:48;;;;;;;0.22;0.22;;;19.20;99.90;;;;;;5055756;28;20052;-81
2022/07/06 02:18:14;;;;;;;0.10;0.10;;;19.20;99.90;;;;;;5055413;28;20116;-81
2022/07/06 02:20:40;;;;;;;0.40;0.40;;;19.20;99.90;;;;;;5056936;28;20033;-81
2022/07/06 02:23:05;;;;;;;0.40;0.40;;;19.20;99.90;;;;;;5056842;28;20025;-81
2022/07/06 02:25:31;;;;;;;0.13;0.13;;;19.30;99.90;;;;;;5055574;28;20032;-81
2022/07/06 02:27:57;;;;;;;0.25;0.25;;;19.30;99.90;;;;;;5055141;28;20045;-81
2022/07/06 02:30:22;;;;;;;0.40;0.40;;;19.30;99.90;;;;;;5055609;28;20021;-81
2022/07/06 02:32:48;;;;;;;0.43;0.43;;;19.40;99.90;;;;;;5056761;28;20028;-81
2022/07/06 02:35:14;;;;;;;0.13;0.13;;;19.40;99.90;;;;;;5055267;28;20406;-81
2022/07/06 02:37:40;;;;;;;0.10;0.10;;;19.50;99.90;;;;;;5056574;28;20049;-81
2022/07/06 02:40:06;;;;;;;0.08;0.08;;;19.50;99.90;;;;;;5056261;28;20024;-81
2022/07/06 02:42:32;;;;;;;0.40;0.32;;;19.60;99.90;;;;;;5056417;28;20502;-81
2022/07/06 02:44:57;;;;;;;0.32;0.32;;;19.60;99.90;;;;;;5056706;28;20017;-81
2022/07/06 02:47:23;;;;;;;0.28;0.28;;;19.70;99.90;;;;;;5055001;28;20021;-81
2022/07/06 02:49:49;;;;;;;0.10;0.10;;;19.70;99.90;;;;;;5056130;28;20029;-81
2022/07/06 02:52:14;;;;;;;0.80;0.80;;;19.80;99.90;;;;;;5054981;28;20111;-81
2022/07/06 02:54:40;;;;;;;0.40;0.40;;;19.80;99.90;;;;;;5055331;28;20036;-81
2022/07/06 02:57:06;;;;;;;0.65;0.65;;;19.90;99.90;;;;;;5056399;28;20025;-81
2022/07/06 02:59:31;;;;;;;2.20;0.73;;;20.00;99.90;;;;;;5056114;28;20060;-81
2022/07/06 03:01:57;;;;;;;0.60;0.60;;;20.00;99.90;;;;;;5054196;28;20423;-81
2022/07/06 03:04:22;;;;;;;0.82;0.82;;;20.10;99.90;;;;;;5055937;28;20052;-81
2022/07/06 03:06:48;;;;;;;2.72;2.47;;;20.10;99.90;;;;;;5056305;28;20505;-81
2022/07/06 03:09:14;;;;;;;9.02;3.85;;;20.20;99.90;;;;;;5055799;28;20485;-81
2022/07/06 03:11:39;;;;;;;9.13;4.10;;;20.30;99.90;;;;;;5056049;28;20060;-81
2022/07/06 03:14:06;;;;;;;3.78;2.58;;;20.30;99.90;;;;;;5054776;28;20036;-80
2022/07/06 03:16:32;;;;;;;4.47;3.25;;;20.40;99.90;;;;;;5055801;28;20036;-80
2022/07/06 03:18:57;;;;;;;3.83;3.58;;;20.50;99.90;;;;;;5055755;28;20059;-80
2022/07/06 03:21:26;;;;;;;2.53;2.33;;;20.50;99.90;;;;;;5055839;28;20361;-81
2022/07/06 03:23:52;;;;;;;1.67;1.50;;;20.60;99.90;;;;;;5054520;28;20167;-81
2022/07/06 03:26:18;;;;;;;1.13;1.10;;;20.70;99.90;;;;;;5055677;28;20292;-81
2022/07/06 03:28:43;;;;;;;0.77;0.77;;;20.80;99.90;;;;;;5055366;28;20071;-81
2022/07/06 03:31:09;;;;;;;4.65;1.67;;;20.90;99.90;;;;;;5054187;28;20100;-81
2022/07/06 03:33:35;;;;;;;1.58;0.77;;;21.00;99.90;;;;;;5054109;28;20557;-81
2022/07/06 03:36:00;;;;;;;0.50;0.50;;;21.10;99.90;;;;;;5054170;28;20025;-81
2022/07/06 03:38:26;;;;;;;0.40;0.40;;;21.10;99.90;;;;;;5055398;28;20039;-81
2022/07/06 03:40:52;;;;;;;0.47;0.28;;;21.20;99.90;;;;;;5055391;28;20378;-81
2022/07/06 03:43:17;;;;;;;0.28;0.28;;;21.30;99.90;;;;;;5053988;28;20025;-81
2022/07/06 03:45:43;;;;;;;0.10;0.10;;;21.40;99.90;;;;;;5053831;28;20079;-81
2022/07/06 03:48:09;;;;;;;0.32;0.32;;;21.40;99.90;;;;;;5053841;28;20090;-80
2022/07/06 03:50:35;;;;;;;4.15;1.10;;;21.50;99.90;;;;;;5055232;28;20021;-80
2022/07/06 03:53:01;;;;;;;1.30;1.27;;;21.40;99.90;;;;;;5055187;28;20132;-81
2022/07/06 03:55:26;;;;;;;1.35;1.27;;;21.60;99.90;;;;;;5055053;28;20040;-81
2022/07/06 03:57:52;;;;;;;0.30;0.30;;;21.70;99.90;;;;;;5055026;28;20123;-81
2022/07/06 04:00:18;;;;;;;0.32;0.32;;;21.90;99.90;;;;;;5054886;28;20056;-81
2022/07/06 04:02:43;;;;;;;1.08;1.08;;;21.90;99.90;;;;;;5054952;28;20162;-81
2022/07/06 04:05:09;;;;;;;1.83;1.67;;;22.00;99.90;;;;;;5054837;28;20029;-81
2022/07/06 04:07:35;;;;;;;0.90;0.90;;;22.10;99.90;;;;;;5054962;28;20017;-81
2022/07/06 04:10:00;;;;;;;0.52;0.52;;;22.10;99.90;;;;;;5053512;28;20086;-81
2022/07/06 04:12:26;;;;;;;1.17;1.15;;;22.30;99.90;;;;;;5052494;28;20017;-81
2022/07/06 04:14:52;;;;;;;0.80;0.80;;;22.50;99.90;;;;;;5054595;28;20025;-81
2022/07/06 04:20:02;;;;;;;0.85;0.85;;;22.70;99.90;;;;;;5054716;28;20106;-80
2022/07/06 04:22:28;;;;;;;1.13;1.13;;;22.80;99.90;;;;;;5054796;28;20025;-81
2022/07/06 04:24:54;;;;;;;2.75;1.33;;;22.90;99.90;;;;;;5054297;28;20028;-81
2022/07/06 04:27:19;;;;;;;1.58;1.48;;;22.80;99.90;;;;;;5054439;28;20064;-81
2022/07/06 04:29:45;;;;;;;1.00;1.00;;;22.90;99.90;;;;;;5052859;28;20056;-81
2022/07/06 04:32:11;;;;;;;1.92;1.83;;;23.00;99.90;;;;;;5053120;28;20104;-81
2022/07/06 04:34:36;;;;;;;3.20;2.95;;;23.10;99.90;;;;;;5054403;28;20052;-81
2022/07/06 04:37:02;;;;;;;2.53;2.08;;;23.20;99.90;;;;;;5052868;28;20017;-80
2022/07/06 04:39:30;;;;;;;2.38;1.85;;;23.40;99.90;;;;;;5052774;28;20033;-80
2022/07/06 04:41:56;;;;;;;2.00;1.90;;;23.60;99.90;;;;;;5052693;28;20052;-81
2022/07/06 04:44:22;;;;;;;1.83;1.73;;;23.70;99.90;;;;;;5052725;28;20471;-81
2022/07/06 04:46:48;;;;;;;1.80;1.67;;;23.90;99.90;;;;;;5054129;28;20040;-80
2022/07/06 04:49:13;;;;;;;1.92;1.42;;;24.00;99.90;;;;;;5053770;28;20353;-80
2022/07/06 04:51:39;;;;;;;1.52;1.40;;;24.20;99.90;;;;;;5052636;28;20054;-80
2022/07/06 04:54:05;;;;;;;2.00;1.38;;;24.40;99.90;;;;;;5053948;28;20048;-80
2022/07/06 04:56:31;;;;;;;2.50;2.22;;;24.40;99.90;;;;;;5053833;28;20464;-80
2022/07/06 04:58:56;;;;;;;3.35;2.15;;;24.50;99.90;;;;;;5054045;28;20029;-80
2022/07/06 05:01:22;;;;;;;1.88;1.70;;;24.70;99.90;;;;;;5054058;28;20502;-81
2022/07/06 05:03:48;;;;;;;1.98;1.88;;;24.70;99.90;;;;;;5053802;28;20032;-80
2022/07/06 05:06:14;;;;;;;2.25;2.08;;;24.70;99.90;;;;;;5053862;28;20422;-80
2022/07/06 05:08:40;;;;;;;2.40;2.20;;;24.80;99.90;;;;;;5053753;28;20043;-80
2022/07/06 05:11:05;;;;;;;1.63;1.52;;;25.00;99.90;;;;;;5053619;28;20527;-80
2022/07/06 05:13:31;;;;;;;1.80;1.70;;;25.20;99.90;;;;;;5053583;28;20063;-80
2022/07/06 05:15:56;;;;;;;1.88;1.77;;;25.20;99.90;;;;;;5053652;28;20024;-80
2022/07/06 05:18:22;;;;;;;1.85;1.27;;;25.30;99.90;;;;;;5052430;28;20032;-80
2022/07/06 05:20:48;;;;;;;1.42;1.33;;;25.20;96.10;;;;;;5053570;28;20059;-80
2022/07/06 05:23:13;;;;;;;1.05;0.80;;;25.30;99.90;;;;;;5053297;28;20025;-80
2022/07/06 05:25:39;;;;;;;1.20;1.20;;;25.60;99.90;;;;;;5053448;28;20025;-81
2022/07/06 05:28:05;;;;;;;1.05;1.05;;;25.60;99.90;;;;;;5053351;28;20102;-81
2022/07/06 05:30:30;;;;;;;1.40;1.30;;;25.70;99.90;;;;;;5052136;28;20021;-81
2022/07/06 05:32:56;;;;;;;0.55;0.55;;;25.80;99.90;;;;;;5053356;28;20044;-81
2022/07/06 05:35:22;;;;;;;0.90;0.90;;;25.90;99.90;;;;;;5053404;28;20032;-81
2022/07/06 05:37:47;;;;;;;6.75;1.63;;;26.10;99.90;;;;;;5053361;28;20100;-81
2022/07/06 05:40:13;;;;;;;1.08;1.08;;;26.10;97.70;;;;;;5052224;28;20482;-81
2022/07/06 05:42:39;;;;;;;1.67;1.58;;;26.20;99.90;;;;;;5053373;28;20023;-81
2022/07/06 05:45:06;;;;;;;3.53;2.10;;;26.40;99.90;;;;;;5053259;28;20025;-81
2022/07/06 18:46:31;;;;;;;0.43;0.30;;;26.00;68.00;;;;;;5111489;27;20369;-78
2022/07/06 18:48:56;;;;;;;0.52;0.52;;;25.50;68.10;;;;;;5109953;28;20527;-78
2022/07/06 18:51:22;;;;;;;0.20;0.20;;;25.30;68.50;;;;;;5111183;28;20390;-78
2022/07/06 18:53:48;;;;;;;0.45;0.45;;;25.30;69.80;;;;;;5110000;28;20200;-78
2022/07/06 18:56:14;;;;;;;9.75;1.35;;;25.20;69.40;;;;;;5109681;28;20024;-83
2022/07/06 18:58:39;;;;;;;0.45;0.45;;;25.20;70.30;;;;;;5109901;28;20436;-79
2022/07/06 19:01:05;;;;;;;0.38;0.38;;;25.20;70.20;;;;;;5110628;28;20024;-79
2022/07/06 19:03:31;;;;;;;0.55;0.55;;;25.10;70.60;;;;;;5111154;28;20051;-80
2022/07/06 19:05:56;;;;;;;0.55;0.55;;;25.10;70.60;;;;;;5110952;28;20024;-81
2022/07/06 19:08:22;;;;;;;0.28;0.28;;;25.10;70.70;;;;;;5109787;28;20081;-79
2022/07/06 19:10:48;;;;;;;0.43;0.43;;;25.00;71.30;;;;;;5110543;28;20080;-79
2022/07/06 19:13:14;;;;;;;0.68;0.35;;;25.00;71.60;;;;;;5111140;28;20020;-79
2022/07/06 19:15:39;;;;;;;0.57;0.57;;;25.00;71.70;;;;;;5109584;28;20482;-80
2022/07/06 19:18:05;;;;;;;0.98;0.93;;;25.00;71.40;;;;;;5110752;28;20020;-79
2022/07/06 19:20:31;;;;;;;0.13;0.13;;;25.00;71.60;;;;;;5110814;28;20470;-80
2022/07/06 19:22:57;;;;;;;3.63;0.80;;;25.00;72.10;;;;;;5110812;28;20095;-79
2022/07/06 19:25:23;;;;;;;0.40;0.40;;;24.90;72.60;;;;;;5109156;28;20035;-78
2022/07/06 19:27:49;;;;;;;0.95;0.55;;;24.90;72.30;;;;;;5110567;28;20027;-79
2022/07/06 19:30:15;;;;;;;0.32;0.32;;;24.90;72.90;;;;;;5109221;28;20016;-78
2022/07/06 19:32:41;;;;;;;1.00;0.45;;;24.80;73.20;;;;;;5110522;28;20494;-78
2022/07/06 19:35:08;;;;;;;1.05;1.00;;;24.80;72.70;;;;;;5110291;28;20034;-78
2022/07/06 19:37:34;;;;;;;0.93;0.88;;;24.80;73.50;;;;;;5109136;28;20107;-78
2022/07/06 19:40:00;;;;;;;0.50;0.50;;;24.80;73.70;;;;;;5110330;28;20028;-78
2022/07/06 19:42:26;;;;;;;0.28;0.28;;;24.70;73.70;;;;;;5110547;28;20024;-81
2022/07/06 19:44:52;;;;;;;2.33;0.52;;;24.70;73.40;;;;;;5108284;28;20048;-80
2022/07/06 19:47:17;;;;;;;0.52;0.25;;;24.60;73.60;;;;;;5110292;28;20090;-81
2022/07/06 19:49:43;;;;;;;0.75;0.40;;;24.60;73.90;;;;;;5110207;28;20020;-77
2022/07/06 19:52:09;;;;;;;0.43;0.43;;;24.60;73.80;;;;;;5108801;28;20016;-78
2022/07/06 19:54:34;;;;;;;0.45;0.45;;;24.60;73.70;;;;;;5109995;28;20543;-79
2022/07/06 19:57:03;;;;;;;0.75;0.73;;;24.60;73.80;;;;;;5101239;28;20475;-79
2022/07/06 19:59:32;;;;;;;0.97;0.63;;;24.60;73.60;;;;;;5096391;28;20099;-79
2022/07/06 20:01:58;;;;;;;0.30;0.20;;;24.60;74.60;;;;;;5095032;28;20032;-79
2022/07/06 20:04:26;;;;;;;0.75;0.75;;;24.50;74.50;;;;;;5096227;28;20094;-79
2022/07/06 20:06:51;;;;;;;1.08;1.05;;;24.60;74.50;;;;;;5096240;28;20043;-79
2022/07/06 20:09:17;;;;;;;4.90;1.73;;;24.60;74.50;;;;;;5093434;28;20085;-80
2022/07/06 20:11:43;;;;;;;1.10;1.00;;;24.60;73.90;;;;;;5096217;28;20060;-79
2022/07/06 20:14:09;;;;;;;0.75;0.28;;;24.60;74.00;;;;;;5096197;28;20020;-79
2022/07/06 20:16:34;;;;;;;0.60;0.60;;;24.60;74.60;;;;;;5094777;28;20035;-79
2022/07/06 20:19:00;;;;;;;1.42;0.95;;;24.70;74.50;;;;;;5111903;28;20047;-79
2022/07/06 20:21:26;;;;;;;1.30;1.20;;;24.70;74.10;;;;;;5095919;28;20099;-79
2022/07/06 20:23:52;;;;;;;1.75;1.02;;;24.70;74.50;;;;;;5096017;28;20016;-79
2022/07/06 20:26:18;;;;;;;0.45;0.40;;;24.60;74.10;;;;;;5096109;28;20024;-79
2022/07/06 20:28:44;;;;;;;0.35;0.35;;;24.60;74.40;;;;;;5094670;28;20031;-79
2022/07/06 20:31:10;;;;;;;1.23;1.13;;;24.60;76.40;;;;;;5095846;28;20024;-79
2022/07/06 20:33:36;;;;;;;1.20;1.10;;;24.60;75.40;;;;;;5095886;28;20021;-79
2022/07/06 20:36:04;;;;;;;0.63;0.63;;;24.70;73.10;;;;;;5095761;28;20126;-78
2022/07/06 20:38:30;;;;;;;0.68;0.68;;;24.80;72.90;;;;;;5095781;28;20047;-79
2022/07/06 20:40:55;;;;;;;0.85;0.85;;;24.80;71.20;;;;;;5095673;28;20474;-79
2022/07/06 20:43:21;;;;;;;1.13;1.08;;;24.90;71.70;;;;;;5094385;28;20406;-79
2022/07/06 20:45:47;;;;;;;2.97;1.40;;;25.00;70.30;;;;;;5095434;28;20044;-79
2022/07/06 20:48:13;;;;;;;1.02;0.68;;;25.10;70.80;;;;;;5094018;28;20028;-79
2022/07/06 20:50:39;;;;;;;0.57;0.55;;;25.10;71.70;;;;;;5095177;28;20095;-79
2022/07/06 20:53:05;;;;;;;1.33;1.00;;;25.10;70.30;;;;;;5095574;28;20082;-79
2022/07/06 20:55:32;;;;;;;0.55;0.55;;;25.10;69.30;;;;;;5094074;28;20024;-79
2022/07/06 20:57:58;;;;;;;1.52;1.20;;;25.10;70.40;;;;;;5095500;28;20030;-79
2022/07/06 21:00:24;;;;;;;1.05;0.98;;;25.20;70.30;;;;;;5093667;28;20059;-79
2022/07/06 21:02:50;;;;;;;1.77;1.33;;;25.30;71.90;;;;;;5093991;28;20370;-79
2022/07/06 21:05:15;;;;;;;0.50;0.50;;;25.40;72.40;;;;;;5093523;28;20059;-79
2022/07/06 21:07:41;;;;;;;0.60;0.60;;;25.40;72.70;;;;;;5093813;28;20425;-79
2022/07/06 21:10:08;;;;;;;0.52;0.52;;;25.40;74.00;;;;;;5093579;28;20020;-79
2022/07/06 21:12:33;;;;;;;0.65;0.65;;;25.40;75.10;;;;;;5093838;28;20501;-80
2022/07/06 21:14:59;;;;;;;0.57;0.47;;;25.40;76.00;;;;;;5092780;28;20110;-79
2022/07/06 21:17:25;;;;;;;1.65;1.52;;;25.30;77.30;;;;;;5093850;28;20363;-80
2022/07/06 21:19:50;;;;;;;1.40;1.40;;;25.20;79.30;;;;;;5093755;28;20107;-79
2022/07/06 21:22:16;;;;;;;0.40;0.40;;;25.10;80.50;;;;;;5093850;28;20423;-79
2022/07/06 21:24:42;;;;;;;1.45;1.45;;;25.10;81.00;;;;;;5093802;28;20028;-79
2022/07/06 21:27:07;;;;;;;1.15;0.98;;;24.90;82.20;;;;;;5093950;28;20081;-79
2022/07/06 21:29:33;;;;;;;1.92;1.73;;;24.90;82.60;;;;;;5094030;28;20031;-80
2022/07/06 21:32:00;;;;;;;0.70;0.70;;;24.80;84.20;;;;;;5093991;28;20028;-80
2022/07/06 21:34:28;;;;;;;0.75;0.73;;;24.70;85.10;;;;;;5094021;28;20016;-80
2022/07/06 21:36:54;;;;;;;3.25;0.95;;;24.60;86.00;;;;;;5093001;28;20370;-80
2022/07/06 21:39:20;;;;;;;1.02;1.02;;;24.60;87.00;;;;;;5093602;28;20467;-80
2022/07/06 21:41:46;;;;;;;0.90;0.90;;;24.50;88.60;;;;;;5093490;28;20046;-80
2022/07/06 21:44:11;;;;;;;1.52;1.42;;;24.50;89.40;;;;;;5093257;28;20027;-80
2022/07/06 21:46:37;;;;;;;0.75;0.75;;;24.40;90.40;;;;;;5092445;28;20016;-80
2022/07/06 21:49:03;;;;;;;0.80;0.80;;;24.40;90.40;;;;;;5092105;28;20031;-80
2022/07/06 21:51:29;;;;;;;1.58;1.48;;;24.30;91.10;;;;;;5092304;28;20429;-80
2022/07/06 21:53:54;;;;;;;1.33;1.15;;;24.30;91.30;;;;;;5093905;28;20081;-79
2022/07/06 21:56:20;;;;;;;2.65;1.48;;;24.20;91.90;;;;;;5092627;28;20445;-79
2022/07/06 21:58:46;;;;;;;0.45;0.45;;;24.20;92.30;;;;;;5093871;28;20019;-79
2022/07/06 22:01:12;;;;;;;0.75;0.75;;;24.20;92.30;;;;;;5092659;28;20478;-79
2022/07/06 22:03:38;;;;;;;1.30;1.23;;;24.20;93.70;;;;;;5093942;28;20051;-79
2022/07/06 22:06:04;;;;;;;1.25;1.20;;;24.10;94.10;;;;;;5092763;28;20027;-79
2022/07/06 22:08:30;;;;;;;0.80;0.80;;;24.20;94.30;;;;;;5094105;28;20020;-79
2022/07/06 22:10:56;;;;;;;1.27;1.17;;;24.20;94.50;;;;;;5093814;28;20025;-79
2022/07/06 22:16:05;;;;;;;1.17;1.17;;;24.00;94.40;;;;;;5094138;28;20022;-79
2022/07/06 22:18:31;;;;;;;1.17;0.47;;;24.00;94.70;;;;;;5092613;28;20020;-79
2022/07/06 22:20:57;;;;;;;1.65;1.40;;;24.00;95.10;;;;;;5092435;28;20050;-79
2022/07/06 22:23:22;;;;;;;0.43;0.43;;;23.90;95.50;;;;;;5092698;28;20474;-79
2022/07/06 22:25:48;;;;;;;2.08;0.82;;;23.90;95.60;;;;;;5092591;28;20470;-79
2022/07/06 22:28:14;;;;;;;0.45;0.45;;;23.90;96.20;;;;;;5092533;28;20123;-79
2022/07/06 22:30:39;;;;;;;0.30;0.30;;;23.90;96.40;;;;;;5093905;28;20103;-79
2022/07/06 22:33:05;;;;;;;3.72;2.13;;;23.80;96.00;;;;;;5092665;28;20020;-79
2022/07/06 22:35:30;;;;;;;1.38;1.27;;;23.90;96.40;;;;;;5092387;28;20024;-79
2022/07/06 22:37:56;;;;;;;1.05;1.05;;;23.90;96.50;;;;;;5092640;28;20518;-79
2022/07/06 22:43:06;;;;;;;0.75;0.68;;;23.90;96.70;;;;;;5093691;28;20026;-79
2022/07/06 22:45:31;;;;;;;0.68;0.68;;;23.90;97.40;;;;;;5092169;28;20402;-79
2022/07/06 22:47:57;;;;;;;0.55;0.47;;;23.90;97.60;;;;;;5092433;28;20478;-79
2022/07/06 22:50:23;;;;;;;0.63;0.55;;;23.90;97.70;;;;;;5093474;28;20016;-79
2022/07/06 22:52:49;;;;;;;0.40;0.38;;;23.90;97.50;;;;;;5092208;28;20386;-79
2022/07/06 22:55:14;;;;;;;1.33;1.33;;;24.00;97.40;;;;;;5093693;28;20035;-79
2022/07/06 22:57:40;;;;;;;3.35;1.55;;;24.00;97.40;;;;;;5093511;28;20035;-79
2022/07/06 23:00:07;;;;;;;1.10;0.80;;;24.10;97.20;;;;;;5093469;28;20562;-79
2022/07/06 23:02:32;;;;;;;0.80;0.80;;;24.10;97.00;;;;;;5093416;28;20421;-79
2022/07/06 23:04:58;;;;;;;0.82;0.82;;;24.20;97.10;;;;;;5093572;28;20020;-79
2022/07/06 23:07:24;;;;;;;0.82;0.82;;;24.20;96.90;;;;;;5093393;28;20542;-79
2022/07/06 23:09:49;;;;;;;1.25;1.15;;;24.10;97.00;;;;;;5092152;28;20424;-79
2022/07/06 23:12:15;;;;;;;0.70;0.55;;;24.10;96.80;;;;;;5092047;28;20532;-79
2022/07/06 23:14:41;;;;;;;1.05;1.02;;;24.10;97.00;;;;;;5093460;28;20100;-79
2022/07/06 23:17:06;;;;;;;0.93;0.85;;;24.00;97.00;;;;;;5093396;28;20024;-79
2022/07/06 23:19:37;;;;;;;3.97;1.98;;;23.90;96.90;;;;;;5092141;28;20033;-79
2022/07/06 23:22:05;;;;;;;0.60;0.60;;;23.90;96.80;;;;;;5093234;28;20107;-79
